createdAt,value
2017-11-07T00:01:48.959Z,64.98
2017-11-07T00:03:50.628Z,64.92
2017-11-07T00:05:52.477Z,64.96
2017-11-07T00:07:54.522Z,65.01
2017-11-07T00:09:56.448Z,65.08
2017-11-07T00:11:58.600Z,65.00
2017-11-07T00:14:00.619Z,64.99
2017-11-07T00:16:02.516Z,65.07
2017-11-07T00:18:04.654Z,65.07
2017-11-07T00:20:06.733Z,65.10
2017-11-07T00:22:08.579Z,64.92
2017-11-07T00:24:10.246Z,64.98
2017-11-07T00:26:11.974Z,65.17
2017-11-07T00:28:13.526Z,65.21
2017-11-07T00:30:15.396Z,65.25
2017-11-07T00:32:17.251Z,65.30
2017-11-07T00:34:19.213Z,65.24
2017-11-07T00:36:20.774Z,65.31
2017-11-07T00:38:22.533Z,65.25
2017-11-07T00:40:23.976Z,65.45
2017-11-07T00:42:25.933Z,65.28
2017-11-07T00:44:31.074Z,65.25
2017-11-07T00:46:32.922Z,65.21
2017-11-07T00:48:35.047Z,65.17
2017-11-07T00:50:36.805Z,65.01
2017-11-07T00:52:38.491Z,65.06
2017-11-07T00:54:40.334Z,65.09
2017-11-07T00:56:42.094Z,65.19
2017-11-07T00:58:44.290Z,65.16
2017-11-07T01:00:46.134Z,65.05
2017-11-07T01:02:47.894Z,64.93
2017-11-07T01:04:49.656Z,64.99
2017-11-07T01:06:51.514Z,64.97
2017-11-07T01:08:53.331Z,64.97
2017-11-07T01:10:55.318Z,64.96
2017-11-07T01:12:57.172Z,64.98
2017-11-07T01:14:58.927Z,64.86
2017-11-07T01:17:00.684Z,64.80
2017-11-07T01:19:02.533Z,64.86
2017-11-07T01:21:04.146Z,64.87
2017-11-07T01:23:05.922Z,64.79
2017-11-07T01:25:07.722Z,64.79
2017-11-07T01:27:09.567Z,64.80
2017-11-07T01:29:11.328Z,64.84
2017-11-07T01:31:14.210Z,64.79
2017-11-07T01:33:16.081Z,64.79
2017-11-07T01:35:17.923Z,64.69
2017-11-07T01:37:19.842Z,64.68
2017-11-07T01:39:21.646Z,64.77
2017-11-07T01:41:23.397Z,64.76
2017-11-07T01:43:25.131Z,64.60
2017-11-07T01:45:27.330Z,64.66
2017-11-07T01:47:29.164Z,64.73
2017-11-07T01:49:31.012Z,64.63
2017-11-07T01:51:32.890Z,64.65
2017-11-07T01:53:34.643Z,64.65
2017-11-07T01:55:36.576Z,64.63
2017-11-07T01:57:38.363Z,64.49
2017-11-07T01:59:40.121Z,64.47
2017-11-07T02:01:41.875Z,64.51
2017-11-07T02:03:43.929Z,64.52
2017-11-07T02:05:45.683Z,64.59
2017-11-07T02:07:47.534Z,64.50
2017-11-07T02:09:49.314Z,64.49
2017-11-07T02:11:51.161Z,64.43
2017-11-07T02:13:52.882Z,64.42
2017-11-07T02:15:54.657Z,64.47
2017-11-07T02:17:56.414Z,64.49
2017-11-07T02:19:58.159Z,64.46
2017-11-07T02:21:59.920Z,64.46
2017-11-07T02:24:01.696Z,64.42
2017-11-07T02:26:03.740Z,64.54
2017-11-07T02:28:05.525Z,64.54
2017-11-07T02:30:07.569Z,64.42
2017-11-07T02:32:09.328Z,64.29
2017-11-07T02:34:11.085Z,64.24
2017-11-07T02:36:12.840Z,64.22
2017-11-07T02:38:14.589Z,64.16
2017-11-07T02:40:16.641Z,63.98
2017-11-07T02:42:18.404Z,63.99
2017-11-07T02:44:20.163Z,63.93
2017-11-07T02:46:22.433Z,63.92
2017-11-07T02:48:24.197Z,63.92
2017-11-07T02:50:26.128Z,63.96
2017-11-07T02:52:27.797Z,63.85
2017-11-07T02:54:29.555Z,63.95
2017-11-07T02:56:31.286Z,63.91
2017-11-07T02:58:33.042Z,63.83
2017-11-07T03:00:34.808Z,63.83
2017-11-07T03:02:36.779Z,63.89
2017-11-07T03:04:38.618Z,63.83
2017-11-07T03:06:40.288Z,63.79
2017-11-07T03:08:41.929Z,63.83
2017-11-07T03:10:43.804Z,63.78
2017-11-07T03:12:45.444Z,63.72
2017-11-07T03:14:47.403Z,63.67
2017-11-07T03:16:49.060Z,63.66
2017-11-07T03:18:50.813Z,63.67
2017-11-07T03:20:52.799Z,63.59
2017-11-07T03:22:54.650Z,63.65
2017-11-07T03:24:56.488Z,63.77
2017-11-07T03:26:58.250Z,63.79
2017-11-07T03:28:59.865Z,63.76
2017-11-07T03:31:01.637Z,63.80
2017-11-07T03:33:03.410Z,63.67
2017-11-07T03:35:05.171Z,63.79
2017-11-07T03:37:06.838Z,63.69
2017-11-07T03:39:08.657Z,63.69
2017-11-07T03:41:10.491Z,63.76
2017-11-07T03:43:12.315Z,63.82
2017-11-07T03:45:14.138Z,63.79
2017-11-07T03:47:16.820Z,63.90
2017-11-07T03:49:18.574Z,63.81
2017-11-07T03:51:20.322Z,63.90
2017-11-07T03:53:22.089Z,63.87
2017-11-07T03:55:23.854Z,63.96
2017-11-07T03:57:25.601Z,63.85
2017-11-07T03:59:27.253Z,63.84
2017-11-07T04:01:29.006Z,63.87
2017-11-07T04:03:30.758Z,63.85
2017-11-07T04:05:32.612Z,63.86
2017-11-07T04:07:34.449Z,63.77
2017-11-07T04:09:36.232Z,63.96
2017-11-07T04:11:37.784Z,63.99
2017-11-07T04:13:39.634Z,63.90
2017-11-07T04:15:41.494Z,63.93
2017-11-07T04:17:43.097Z,63.86
2017-11-07T04:19:45.016Z,63.88
2017-11-07T04:21:46.961Z,63.88
2017-11-07T04:23:48.840Z,63.93
2017-11-07T04:25:50.484Z,63.90
2017-11-07T04:27:52.363Z,64.06
2017-11-07T04:29:54.093Z,63.99
2017-11-07T04:31:55.880Z,63.92
2017-11-07T04:33:57.806Z,63.93
2017-11-07T04:35:59.570Z,63.93
2017-11-07T04:38:02.084Z,63.89
2017-11-07T04:40:03.890Z,63.85
2017-11-07T04:42:05.646Z,63.79
2017-11-07T04:44:07.722Z,63.81
2017-11-07T04:46:09.774Z,63.80
2017-11-07T04:48:11.527Z,63.77
2017-11-07T04:50:13.292Z,63.81
2017-11-07T04:52:15.174Z,63.84
2017-11-07T04:54:17.004Z,63.68
2017-11-07T04:56:19.082Z,63.74
2017-11-07T04:58:21.130Z,63.70
2017-11-07T05:00:24.726Z,63.62
2017-11-07T05:02:26.495Z,63.64
2017-11-07T05:04:28.847Z,63.71
2017-11-07T05:06:30.524Z,63.76
2017-11-07T05:08:32.394Z,63.67
2017-11-07T05:10:34.168Z,63.64
2017-11-07T05:12:36.294Z,63.73
2017-11-07T05:14:38.139Z,63.69
2017-11-07T05:16:40.044Z,63.71
2017-11-07T05:18:42.295Z,63.73
2017-11-07T05:20:44.130Z,63.72
2017-11-07T05:22:45.888Z,63.66
2017-11-07T05:24:47.957Z,63.67
2017-11-07T05:26:50.009Z,63.75
2017-11-07T05:28:51.978Z,63.75
2017-11-07T05:30:53.842Z,63.73
2017-11-07T05:32:55.897Z,63.96
2017-11-07T05:34:57.865Z,63.93
2017-11-07T05:36:59.589Z,64.10
2017-11-07T05:39:01.295Z,64.25
2017-11-07T05:41:03.414Z,64.19
2017-11-07T05:43:06.164Z,64.32
2017-11-07T05:45:08.169Z,64.32
2017-11-07T05:47:11.484Z,64.38
2017-11-07T05:49:13.905Z,64.52
2017-11-07T05:51:15.679Z,64.49
2017-11-07T05:53:17.436Z,64.35
2017-11-07T05:55:21.329Z,64.35
2017-11-07T05:57:23.091Z,64.34
2017-11-07T05:59:24.968Z,64.24
2017-11-07T06:01:28.188Z,64.22
2017-11-07T06:05:44.260Z,64.09
2017-11-07T06:07:46.105Z,64.05
2017-11-07T06:09:47.748Z,64.09
2017-11-07T06:11:50.742Z,64.17
2017-11-07T06:13:56.211Z,64.28
2017-11-07T06:15:58.146Z,64.23
2017-11-07T06:18:02.793Z,64.08
2017-11-07T06:20:04.829Z,64.07
2017-11-07T06:22:06.680Z,64.02
2017-11-07T06:26:18.760Z,64.09
2017-11-07T06:28:21.566Z,64.04
2017-11-07T06:30:25.262Z,64.15
2017-11-07T06:32:28.318Z,64.28
2017-11-07T06:34:31.588Z,64.26
2017-11-07T06:36:35.013Z,64.27
2017-11-07T06:38:38.149Z,64.28
2017-11-07T06:40:42.354Z,64.43
2017-11-07T06:42:46.654Z,64.48
2017-11-07T06:44:51.125Z,64.36
2017-11-07T06:46:53.228Z,64.26
2017-11-07T06:48:56.680Z,64.32
2017-11-07T06:50:59.798Z,64.19
2017-11-07T06:53:03.297Z,64.24
2017-11-07T06:55:06.909Z,64.27
2017-11-07T06:57:11.452Z,64.31
2017-11-07T06:59:15.756Z,64.42
2017-11-07T07:01:19.970Z,64.40
2017-11-07T07:03:24.316Z,64.33
2017-11-07T07:05:30.036Z,64.45
2017-11-07T07:09:47.567Z,64.32
2017-11-07T07:11:50.720Z,64.37
2017-11-07T07:13:54.241Z,64.52
2017-11-07T07:15:57.423Z,64.64
2017-11-07T07:18:00.604Z,64.54
2017-11-07T07:20:03.997Z,64.58
2017-11-07T07:22:06.984Z,64.65
2017-11-07T07:24:10.319Z,64.60
2017-11-07T07:26:14.214Z,64.59
2017-11-07T07:28:18.639Z,64.57
2017-11-07T07:32:37.087Z,64.58
2017-11-07T07:34:38.862Z,64.69
2017-11-07T07:36:44.828Z,64.70
2017-11-07T07:38:48.664Z,64.53
2017-11-07T07:40:51.882Z,64.26
2017-11-07T07:42:56.508Z,64.26
2017-11-07T07:44:58.889Z,64.36
2017-11-07T07:47:00.846Z,64.34
2017-11-07T07:49:02.438Z,64.35
2017-11-07T07:51:04.167Z,64.40
2017-11-07T07:53:06.042Z,64.29
2017-11-07T07:55:07.794Z,64.49
2017-11-07T07:57:09.582Z,64.37
2017-11-07T07:59:11.503Z,64.42
2017-11-07T08:01:13.361Z,64.48
2017-11-07T08:03:15.313Z,64.42
2017-11-07T08:05:17.292Z,64.48
2017-11-07T08:07:19.161Z,64.49
2017-11-07T08:09:20.906Z,64.55
2017-11-07T08:11:23.674Z,64.47
2017-11-07T08:13:25.432Z,64.47
2017-11-07T08:15:30.637Z,64.30
2017-11-07T08:17:32.351Z,64.33
2017-11-07T08:19:34.073Z,64.33
2017-11-07T08:21:36.023Z,64.32
2017-11-07T08:23:37.879Z,64.52
2017-11-07T08:25:39.794Z,64.44
2017-11-07T08:27:41.691Z,64.35
2017-11-07T08:29:43.520Z,64.39
2017-11-07T08:31:45.593Z,64.54
2017-11-07T08:33:47.471Z,64.39
2017-11-07T08:35:49.212Z,64.35
2017-11-07T08:37:50.882Z,64.33
2017-11-07T08:39:52.560Z,64.31
2017-11-07T08:41:54.439Z,64.35
2017-11-07T08:43:58.372Z,64.27
2017-11-07T08:46:01.644Z,64.21
2017-11-07T08:48:04.742Z,64.21
2017-11-07T08:50:07.777Z,64.27
2017-11-07T08:52:11.991Z,64.40
2017-11-07T08:54:16.842Z,64.36
2017-11-07T08:56:20.970Z,64.25
2017-11-07T08:58:26.382Z,64.26
2017-11-07T09:00:28.312Z,64.36
2017-11-07T09:02:30.159Z,64.34
2017-11-07T09:04:31.915Z,64.44
2017-11-07T09:06:33.832Z,64.35
2017-11-07T09:08:35.638Z,64.27
2017-11-07T09:10:37.402Z,64.34
2017-11-07T09:12:39.682Z,64.26
2017-11-07T09:14:41.962Z,64.14
2017-11-07T09:16:45.363Z,64.28
2017-11-07T09:18:47.548Z,64.16
2017-11-07T09:20:49.365Z,63.98
2017-11-07T09:22:51.242Z,63.93
2017-11-07T09:24:53.201Z,64.15
2017-11-07T09:26:56.485Z,64.16
2017-11-07T09:28:58.427Z,64.05
2017-11-07T09:31:00.191Z,64.11
2017-11-07T09:33:02.176Z,64.11
2017-11-07T09:35:05.679Z,64.03
2017-11-07T09:37:10.323Z,63.86
2017-11-07T09:39:15.814Z,63.82
2017-11-07T09:41:20.972Z,64.04
2017-11-07T09:43:24.711Z,64.09
2017-11-07T09:45:26.597Z,64.12
2017-11-07T09:47:28.567Z,64.07
2017-11-07T09:49:30.417Z,64.13
2017-11-07T09:51:32.275Z,64.36
2017-11-07T09:53:34.145Z,64.19
2017-11-07T09:55:36.081Z,64.08
2017-11-07T09:57:37.863Z,64.22
2017-11-07T09:59:39.600Z,64.38
2017-11-07T10:01:41.219Z,64.16
2017-11-07T10:03:42.888Z,64.31
2017-11-07T10:05:44.872Z,64.42
2017-11-07T10:07:46.710Z,64.41
2017-11-07T10:09:48.375Z,64.40
2017-11-07T10:11:50.161Z,64.50
2017-11-07T10:13:52.008Z,64.55
2017-11-07T10:15:53.761Z,64.53
2017-11-07T10:17:55.703Z,64.72
2017-11-07T10:19:57.553Z,64.69
2017-11-07T10:21:59.131Z,64.89
2017-11-07T10:24:01.306Z,64.69
2017-11-07T10:26:03.270Z,64.80
2017-11-07T10:28:05.234Z,64.82
2017-11-07T10:30:07.276Z,64.91
2017-11-07T10:32:09.190Z,64.78
2017-11-07T10:34:11.072Z,64.83
2017-11-07T10:36:12.747Z,64.86
2017-11-07T10:38:14.879Z,64.90
2017-11-07T10:40:16.894Z,64.91
2017-11-07T10:42:18.809Z,65.02
2017-11-07T10:44:20.960Z,65.00
2017-11-07T10:46:25.075Z,65.10
2017-11-07T10:48:27.276Z,64.98
2017-11-07T10:50:29.159Z,64.89
2017-11-07T10:52:30.959Z,64.97
2017-11-07T10:54:32.557Z,64.92
2017-11-07T10:56:34.250Z,64.90
2017-11-07T10:58:35.917Z,65.03
2017-11-07T11:00:38.155Z,65.01
2017-11-07T11:02:40.242Z,65.00
2017-11-07T11:04:43.587Z,65.14
2017-11-07T11:06:48.730Z,65.08
2017-11-07T11:08:53.499Z,65.13
2017-11-07T11:10:59.381Z,65.04
2017-11-07T11:13:05.230Z,65.11
2017-11-07T11:15:10.579Z,64.95
2017-11-07T11:17:12.642Z,64.88
2017-11-07T11:19:14.514Z,64.88
2017-11-07T11:21:16.475Z,64.85
2017-11-07T11:23:18.721Z,64.91
2017-11-07T11:25:20.677Z,64.88
2017-11-07T11:27:22.747Z,64.84
2017-11-07T11:29:24.484Z,65.01
2017-11-07T11:31:29.322Z,65.08
2017-11-07T11:33:31.187Z,65.07
2017-11-07T11:35:33.080Z,65.20
2017-11-07T11:37:37.004Z,65.00
2017-11-07T11:39:40.182Z,65.13
2017-11-07T11:41:43.292Z,65.11
2017-11-07T11:43:46.553Z,65.14
2017-11-07T11:45:48.306Z,64.97
2017-11-07T11:47:50.113Z,64.91
2017-11-07T11:49:52.808Z,64.91
2017-11-07T11:51:54.558Z,65.14
2017-11-07T11:53:56.527Z,65.07
2017-11-07T11:55:58.361Z,64.89
2017-11-07T11:58:00.233Z,65.03
2017-11-07T12:00:02.924Z,64.99
2017-11-07T12:02:04.956Z,65.04
2017-11-07T12:04:08.264Z,64.86
2017-11-07T12:08:14.183Z,64.75
2017-11-07T12:10:19.202Z,64.66
2017-11-07T12:12:21.429Z,64.74
2017-11-07T12:14:23.283Z,64.77
2017-11-07T12:16:25.160Z,64.89
2017-11-07T12:18:27.047Z,65.01
2017-11-07T12:20:29.037Z,65.00
2017-11-07T12:22:31.598Z,65.10
2017-11-07T12:24:33.366Z,65.16
2017-11-07T12:26:35.291Z,64.78
2017-11-07T12:28:37.348Z,64.96
2017-11-07T12:30:39.186Z,64.68
2017-11-07T12:32:41.322Z,64.48
2017-11-07T12:34:43.081Z,64.46
2017-11-07T12:36:45.067Z,63.93
2017-11-07T12:38:46.999Z,63.81
2017-11-07T12:40:49.067Z,63.88
2017-11-07T12:42:51.002Z,63.76
2017-11-07T12:44:52.792Z,63.60
2017-11-07T12:46:54.634Z,63.62
2017-11-07T12:48:56.396Z,63.34
2017-11-07T12:50:58.162Z,63.43
2017-11-07T12:52:59.927Z,63.42
2017-11-07T12:55:01.880Z,63.36
2017-11-07T12:57:03.748Z,63.36
2017-11-07T12:59:05.833Z,63.23
2017-11-07T13:01:08.470Z,63.30
2017-11-07T13:03:10.339Z,63.18
2017-11-07T13:05:12.491Z,62.99
2017-11-07T13:07:15.968Z,63.07
2017-11-07T13:09:20.885Z,63.07
2017-11-07T13:11:24.560Z,62.78
2017-11-07T13:13:27.704Z,62.76
2017-11-07T13:15:33.425Z,62.75
2017-11-07T13:17:35.520Z,62.59
2017-11-07T13:19:39.410Z,62.45
2017-11-07T13:21:42.153Z,62.27
2017-11-07T13:23:43.958Z,62.25
2017-11-07T13:25:46.131Z,62.33
2017-11-07T13:27:47.751Z,62.21
2017-11-07T13:29:51.148Z,62.07
2017-11-07T13:31:55.140Z,61.99
2017-11-07T13:33:58.206Z,62.12
2017-11-07T13:36:01.210Z,62.20
2017-11-07T13:38:04.462Z,61.97
2017-11-07T13:40:07.582Z,61.96
2017-11-07T13:42:10.664Z,61.98
2017-11-07T13:44:13.758Z,62.11
2017-11-07T13:46:18.331Z,62.38
2017-11-07T13:48:21.638Z,62.45
2017-11-07T13:50:24.654Z,62.10
2017-11-07T13:52:28.761Z,62.10
2017-11-07T13:54:32.917Z,62.22
2017-11-07T13:56:37.752Z,61.97
2017-11-07T13:58:43.967Z,62.09
2017-11-07T14:00:49.007Z,62.18
2017-11-07T14:02:54.289Z,62.21
2017-11-07T14:04:58.558Z,62.10
2017-11-07T14:07:03.300Z,62.09
2017-11-07T14:09:09.487Z,62.31
2017-11-07T14:11:15.198Z,62.04
2017-11-07T14:13:18.572Z,62.23
2017-11-07T14:15:22.287Z,62.21
2017-11-07T14:17:25.884Z,62.22
2017-11-07T14:19:31.484Z,62.21
2017-11-07T14:21:34.595Z,62.14
2017-11-07T14:23:37.492Z,62.05
2017-11-07T14:25:40.882Z,62.00
2017-11-07T14:27:45.449Z,62.07
2017-11-07T14:29:47.631Z,62.17
2017-11-07T14:31:49.599Z,61.98
2017-11-07T14:33:51.308Z,62.23
2017-11-07T14:35:53.175Z,62.17
2017-11-07T14:37:55.038Z,61.99
2017-11-07T14:39:56.836Z,62.10
2017-11-07T14:41:58.763Z,62.19
2017-11-07T14:44:00.720Z,62.33
2017-11-07T14:46:02.574Z,62.42
2017-11-07T14:48:05.721Z,62.38
2017-11-07T14:50:08.803Z,62.48
2017-11-07T14:52:12.385Z,62.20
2017-11-07T14:54:15.518Z,62.29
2017-11-07T14:56:17.283Z,62.50
2017-11-07T14:58:21.054Z,62.52
2017-11-07T15:00:24.311Z,62.47
2017-11-07T15:02:26.151Z,62.41
2017-11-07T15:04:27.882Z,62.36
2017-11-07T15:06:29.559Z,62.46
2017-11-07T15:08:31.910Z,62.36
2017-11-07T15:10:38.544Z,62.28
2017-11-07T15:12:40.441Z,62.40
2017-11-07T15:14:43.391Z,62.37
2017-11-07T15:16:47.618Z,62.16
2017-11-07T15:18:52.140Z,62.27
2017-11-07T15:20:56.320Z,62.33
2017-11-07T15:23:00.591Z,62.28
2017-11-07T15:25:06.079Z,62.35
2017-11-07T15:27:12.239Z,62.25
2017-11-07T15:29:17.198Z,62.32
2017-11-07T15:31:19.183Z,62.28
2017-11-07T15:33:23.512Z,62.43
2017-11-07T15:35:27.681Z,62.32
2017-11-07T15:37:29.789Z,62.29
2017-11-07T15:39:32.689Z,62.31
2017-11-07T15:41:34.491Z,62.54
2017-11-07T15:43:36.870Z,62.59
2017-11-07T15:45:40.956Z,62.58
2017-11-07T15:47:44.334Z,62.37
2017-11-07T15:49:47.827Z,62.40
2017-11-07T15:51:51.039Z,62.15
2017-11-07T15:53:55.158Z,61.93
2017-11-07T15:55:57.355Z,62.01
2017-11-07T15:57:59.091Z,61.99
2017-11-07T16:00:01.067Z,62.14
2017-11-07T16:02:03.123Z,62.05
2017-11-07T16:04:05.486Z,62.14
2017-11-07T16:06:07.243Z,62.23
2017-11-07T16:08:09.091Z,62.03
2017-11-07T16:10:10.762Z,62.20
2017-11-07T16:12:12.728Z,62.29
2017-11-07T16:14:14.598Z,62.26
2017-11-07T16:16:16.422Z,62.17
2017-11-07T16:18:18.191Z,62.25
2017-11-07T16:20:20.076Z,62.44
2017-11-07T16:22:22.089Z,62.38
2017-11-07T16:24:23.771Z,62.37
2017-11-07T16:26:27.417Z,62.47
2017-11-07T16:28:30.820Z,62.47
2017-11-07T16:30:33.902Z,62.33
2017-11-07T16:32:38.576Z,62.25
2017-11-07T16:34:42.897Z,62.25
2017-11-07T16:36:45.085Z,62.38
2017-11-07T16:38:48.217Z,62.48
2017-11-07T16:40:50.613Z,62.59
2017-11-07T16:42:52.809Z,62.67
2017-11-07T16:44:55.171Z,62.71
2017-11-07T16:46:57.443Z,62.74
2017-11-07T16:48:59.705Z,62.75
2017-11-07T16:51:01.849Z,62.71
2017-11-07T16:53:04.228Z,62.91
2017-11-07T16:55:06.378Z,63.02
2017-11-07T16:57:08.767Z,63.03
2017-11-07T16:59:11.252Z,63.08
2017-11-07T17:01:14.538Z,63.20
2017-11-07T17:03:16.652Z,63.31
2017-11-07T17:05:19.777Z,63.42
2017-11-07T17:07:21.969Z,63.55
2017-11-07T17:09:24.220Z,63.43
2017-11-07T17:11:26.666Z,63.43
2017-11-07T17:13:28.936Z,63.54
2017-11-07T17:15:30.777Z,63.66
2017-11-07T17:17:32.966Z,63.77
2017-11-07T17:19:37.897Z,63.81
2017-11-07T17:21:40.055Z,63.82
2017-11-07T17:23:41.860Z,63.94
2017-11-07T17:25:43.976Z,64.01
2017-11-07T17:27:46.714Z,63.80
2017-11-07T17:29:48.777Z,63.87
2017-11-07T17:31:51.060Z,63.82
2017-11-07T17:33:53.047Z,63.92
2017-11-07T17:35:55.103Z,63.76
2017-11-07T17:37:57.174Z,64.01
2017-11-07T17:39:59.377Z,64.14
2017-11-07T17:42:01.614Z,64.00
2017-11-07T17:46:11.757Z,63.84
2017-11-07T17:48:15.224Z,63.99
2017-11-07T17:50:18.315Z,63.96
2017-11-07T17:52:21.611Z,63.99
2017-11-07T17:54:24.690Z,64.26
2017-11-07T17:56:26.495Z,64.26
2017-11-07T17:58:28.331Z,64.22
2017-11-07T18:00:31.727Z,64.24
2017-11-07T18:02:35.215Z,64.24
2017-11-07T18:04:40.562Z,64.29
2017-11-07T18:06:45.912Z,64.26
2017-11-07T18:08:51.782Z,64.48
2017-11-07T18:10:53.606Z,64.50
2017-11-07T18:12:55.576Z,64.29
2017-11-07T18:14:57.417Z,64.55
2017-11-07T18:16:59.086Z,64.50
2017-11-07T18:19:01.453Z,64.44
2017-11-07T18:21:03.414Z,64.36
2017-11-07T18:23:06.253Z,64.63
2017-11-07T18:25:09.043Z,64.50
2017-11-07T18:27:13.039Z,64.63
2017-11-07T18:29:16.093Z,64.58
2017-11-07T18:31:19.121Z,64.70
2017-11-07T18:33:22.226Z,64.75
2017-11-07T18:35:26.467Z,64.82
2017-11-07T18:37:31.129Z,64.87
2017-11-07T18:39:33.132Z,64.92
2017-11-07T18:41:34.917Z,64.74
2017-11-07T18:45:42.715Z,65.09
2017-11-07T18:47:44.676Z,65.36
2017-11-07T18:49:46.853Z,65.03
2017-11-07T18:51:48.722Z,65.09
2017-11-07T18:53:50.530Z,65.27
2017-11-07T18:55:52.294Z,65.13
2017-11-07T18:57:53.966Z,65.13
2017-11-07T18:59:55.834Z,65.33
2017-11-07T19:01:57.824Z,65.59
2017-11-07T19:03:59.932Z,65.52
2017-11-07T19:06:02.331Z,65.71
2017-11-07T19:08:04.169Z,65.71
2017-11-07T19:10:05.934Z,65.83
2017-11-07T19:12:07.971Z,65.59
2017-11-07T19:14:09.843Z,65.74
2017-11-07T19:16:11.801Z,65.64
2017-11-07T19:18:13.555Z,65.76
2017-11-07T19:20:15.412Z,65.93
2017-11-07T19:22:17.371Z,65.70
2017-11-07T19:24:19.239Z,65.66
2017-11-07T19:26:21.095Z,66.00
2017-11-07T19:30:26.259Z,65.93
2017-11-07T19:32:28.017Z,65.83
2017-11-07T19:34:29.960Z,66.04
2017-11-07T19:36:31.720Z,65.80
2017-11-07T19:38:33.791Z,65.75
2017-11-07T19:40:35.642Z,65.50
2017-11-07T19:42:37.605Z,65.46
2017-11-07T19:44:39.728Z,65.53
2017-11-07T19:46:41.413Z,65.63
2017-11-07T19:48:43.259Z,65.74
2017-11-07T19:50:45.043Z,65.85
2017-11-07T19:52:46.932Z,65.89
2017-11-07T19:54:48.934Z,65.83
2017-11-07T19:56:50.694Z,65.98
2017-11-07T19:58:52.654Z,66.07
2017-11-07T20:00:54.520Z,66.28
2017-11-07T20:02:56.688Z,65.99
2017-11-07T20:04:58.533Z,66.09
2017-11-07T20:07:00.407Z,66.15
2017-11-07T20:09:02.331Z,65.84
2017-11-07T20:11:04.243Z,66.08
2017-11-07T20:13:06.402Z,66.17
2017-11-07T20:15:08.234Z,66.26
2017-11-07T20:17:10.093Z,66.34
2017-11-07T20:19:12.074Z,66.31
2017-11-07T20:21:13.898Z,66.41
2017-11-07T20:23:15.768Z,66.38
2017-11-07T20:25:17.735Z,66.35
2017-11-07T20:27:19.577Z,66.44
2017-11-07T20:29:21.341Z,66.44
2017-11-07T20:31:24.483Z,66.41
2017-11-07T20:33:28.149Z,66.32
2017-11-07T20:35:31.442Z,66.20
2017-11-07T20:37:33.803Z,66.28
2017-11-07T20:39:35.654Z,66.43
2017-11-07T20:41:40.985Z,66.45
2017-11-07T20:43:42.935Z,66.40
2017-11-07T20:45:44.727Z,66.42
2017-11-07T20:47:47.483Z,66.54
2017-11-07T20:49:49.336Z,66.39
2017-11-07T20:51:51.296Z,66.22
2017-11-07T20:53:53.253Z,66.37
2017-11-07T20:55:55.021Z,66.38
2017-11-07T20:57:56.776Z,66.24
2017-11-07T20:59:58.533Z,66.25
2017-11-07T21:02:00.483Z,66.13
2017-11-07T21:04:02.375Z,66.25
2017-11-07T21:06:04.206Z,66.39
2017-11-07T21:08:06.169Z,66.36
2017-11-07T21:10:08.048Z,66.38
2017-11-07T21:12:09.995Z,66.39
2017-11-07T21:16:25.773Z,66.38
2017-11-07T21:18:27.532Z,66.43
2017-11-07T21:20:29.615Z,66.50
2017-11-07T21:22:31.575Z,66.47
2017-11-07T21:24:33.621Z,66.53
2017-11-07T21:26:35.599Z,66.56
2017-11-07T21:30:44.011Z,66.58
2017-11-07T21:32:45.769Z,66.61
2017-11-07T21:34:47.725Z,66.66
2017-11-07T21:36:49.464Z,66.69
2017-11-07T21:38:51.222Z,66.62
2017-11-07T21:40:52.973Z,66.66
2017-11-07T21:42:54.735Z,66.67
2017-11-07T21:44:56.619Z,66.56
2017-11-07T21:46:58.574Z,66.56
2017-11-07T21:49:02.009Z,66.61
2017-11-07T21:51:06.589Z,66.51
2017-11-07T21:53:10.192Z,66.48
2017-11-07T21:55:14.525Z,66.48
2017-11-07T21:57:18.481Z,66.51
2017-11-07T22:01:38.807Z,66.45
2017-11-07T22:03:40.977Z,66.41
2017-11-07T22:05:43.965Z,66.41
2017-11-07T22:07:45.925Z,66.32
2017-11-07T22:09:47.893Z,66.30
2017-11-07T22:11:50.158Z,66.27
2017-11-07T22:13:52.002Z,66.34
2017-11-07T22:18:00.317Z,66.40
2017-11-07T22:20:02.167Z,66.30
2017-11-07T22:22:03.934Z,66.27
2017-11-07T22:24:05.902Z,66.09
2017-11-07T22:26:07.650Z,66.03
2017-11-07T22:28:09.606Z,65.92
2017-11-07T22:30:11.364Z,65.72
2017-11-07T22:32:13.212Z,65.81
2017-11-07T22:34:15.079Z,65.63
2017-11-07T22:36:16.933Z,65.52
2017-11-07T22:38:18.806Z,65.44
2017-11-07T22:40:20.534Z,65.47
2017-11-07T22:42:22.210Z,65.46
2017-11-07T22:44:24.284Z,65.46
2017-11-07T22:46:26.124Z,65.40
2017-11-07T22:48:27.885Z,65.49
2017-11-07T22:50:29.852Z,65.61
2017-11-07T22:52:31.803Z,65.77
2017-11-07T22:54:33.655Z,66.02
2017-11-07T22:56:35.614Z,65.94
2017-11-07T22:58:37.484Z,65.84
2017-11-07T23:00:39.441Z,66.01
2017-11-07T23:02:41.396Z,66.12
2017-11-07T23:04:43.281Z,66.29
2017-11-07T23:06:45.006Z,66.24
2017-11-07T23:08:46.773Z,66.32
2017-11-07T23:15:35.975Z,66.39
2017-11-07T23:17:37.926Z,66.51
2017-11-07T23:19:39.901Z,66.46
2017-11-07T23:21:42.451Z,66.48
2017-11-07T23:23:47.134Z,66.53
2017-11-07T23:25:48.937Z,66.56
2017-11-07T23:27:50.897Z,66.56
2017-11-07T23:29:52.759Z,66.45
2017-11-07T23:31:54.695Z,66.58
2017-11-07T23:33:56.371Z,66.78
2017-11-07T23:35:58.844Z,66.77
2017-11-07T23:38:00.806Z,66.81
2017-11-07T23:40:02.855Z,66.76
2017-11-07T23:42:04.612Z,66.82
2017-11-07T23:44:06.372Z,66.65
2017-11-07T23:46:08.237Z,66.57
2017-11-07T23:48:10.203Z,66.72
2017-11-07T23:50:12.165Z,66.72
2017-11-07T23:52:14.015Z,66.78
2017-11-07T23:54:15.974Z,66.83
2017-11-07T23:56:17.726Z,66.88
2017-11-07T23:58:19.486Z,66.95
